Time;durP1;ratioP1;P1;durP2;ratioP2;P2;SDS_P1;SDS_P2;PMS_P1;PMS_P2;Temp;Humidity;BMP_temperature;BMP_pressure;BME280_temperature;BME280_humidity;BME280_pressure;Samples;Min_cycle;Max_cycle;Signal;HPM_P1;HPM_P2
2021/11/01 00:01:57;;;;;;;3.17;1.77;;;9.00;99.90;;;;;;5052107;28;20404;-68
2021/11/01 00:04:23;;;;;;;3.40;2.07;;;8.90;99.90;;;;;;5051749;28;20513;-67
2021/11/01 00:06:48;;;;;;;3.90;2.07;;;8.90;99.90;;;;;;5052653;28;20917;-67
2021/11/01 00:09:14;;;;;;;5.70;1.93;;;8.90;99.90;;;;;;5052479;28;20168;-67
2021/11/01 00:11:40;;;;;;;3.17;1.90;;;8.90;99.90;;;;;;5052488;28;20255;-67
2021/11/01 00:14:05;;;;;;;1.90;1.80;;;8.80;99.90;;;;;;5051856;28;20234;-67
2021/11/01 00:16:32;;;;;;;4.00;2.17;;;8.80;99.90;;;;;;5052451;28;20199;-67
2021/11/01 00:18:57;;;;;;;2.53;2.13;;;8.80;99.90;;;;;;5052423;28;20679;-67
2021/11/01 00:21:24;;;;;;;6.27;2.00;;;8.70;99.90;;;;;;5052341;28;20434;-68
2021/11/01 00:23:53;;;;;;;3.10;2.30;;;8.70;99.90;;;;;;5051929;28;20208;-68
2021/11/01 00:26:19;;;;;;;3.30;1.90;;;8.70;99.90;;;;;;5052243;28;20415;-69
2021/11/01 00:28:45;;;;;;;2.03;1.67;;;8.70;99.90;;;;;;5052149;28;20398;-67
2021/11/01 00:31:12;;;;;;;1.43;1.40;;;8.70;99.90;;;;;;5052231;28;20626;-67
2021/11/01 00:33:37;;;;;;;6.10;2.30;;;8.70;99.90;;;;;;5051747;28;20196;-69
2021/11/01 00:36:04;;;;;;;4.13;2.20;;;8.80;99.90;;;;;;5052175;28;20413;-67
2021/11/01 00:38:29;;;;;;;2.13;1.80;;;8.60;99.90;;;;;;5052057;28;20255;-67
2021/11/01 00:40:55;;;;;;;5.03;2.27;;;8.60;99.90;;;;;;5052015;28;20444;-67
2021/11/01 00:43:21;;;;;;;1.77;1.67;;;8.50;99.90;;;;;;5051599;28;20241;-67
2021/11/01 00:45:47;;;;;;;3.10;1.97;;;8.50;99.90;;;;;;5052058;28;20410;-68
2021/11/01 00:48:13;;;;;;;2.83;1.83;;;8.50;99.90;;;;;;5052015;28;20172;-68
2021/11/01 00:50:39;;;;;;;2.93;1.43;;;8.50;99.90;;;;;;5051843;28;20195;-67
2021/11/01 00:53:05;;;;;;;4.30;2.10;;;8.60;99.90;;;;;;5051301;28;20910;-68
2021/11/01 00:55:48;;;;;;;1.83;1.70;;;8.50;99.90;;;;;;5051835;28;20446;-68
2021/11/01 00:58:14;;;;;;;1.80;1.70;;;8.50;99.90;;;;;;5051860;28;20458;-67
2021/11/01 01:00:40;;;;;;;2.90;1.60;;;8.50;99.90;;;;;;5051745;28;20921;-67
2021/11/01 01:03:06;;;;;;;4.77;2.00;;;8.40;99.90;;;;;;5051391;28;20172;-68
2021/11/01 01:05:31;;;;;;;1.80;1.70;;;8.40;99.90;;;;;;5051543;28;20401;-67
2021/11/01 01:07:57;;;;;;;3.03;1.70;;;8.40;99.90;;;;;;5051707;28;20407;-67
2021/11/01 01:10:23;;;;;;;4.13;2.30;;;8.40;99.90;;;;;;5051672;28;20171;-67
2021/11/01 01:12:49;;;;;;;7.30;2.47;;;8.40;99.90;;;;;;5051326;28;20240;-67
2021/11/01 01:15:20;;;;;;;2.13;1.83;;;8.40;99.90;;;;;;5051522;28;20222;-68
2021/11/01 01:17:47;;;;;;;2.10;2.00;;;8.40;99.90;;;;;;5051729;28;20398;-67
2021/11/01 01:20:14;;;;;;;7.37;2.57;;;8.40;99.90;;;;;;5051543;28;20400;-67
2021/11/01 01:22:43;;;;;;;2.83;1.73;;;8.40;99.90;;;;;;5051363;28;20411;-68
2021/11/01 01:25:18;;;;;;;2.70;2.50;;;8.50;99.90;;;;;;5051525;28;20432;-67
2021/11/01 01:27:45;;;;;;;5.07;2.70;;;8.50;99.90;;;;;;5051543;28;20456;-68
2021/11/01 01:30:11;;;;;;;2.27;2.07;;;8.40;99.90;;;;;;5051492;28;20402;-67
2021/11/01 01:32:38;;;;;;;3.43;2.13;;;8.40;99.90;;;;;;5051396;28;20399;-69
2021/11/01 01:35:04;;;;;;;5.17;2.47;;;8.40;99.90;;;;;;5051129;28;20553;-67
2021/11/01 01:37:29;;;;;;;4.30;2.73;;;8.60;99.90;;;;;;5051419;28;20501;-68
2021/11/01 01:39:55;;;;;;;3.57;2.80;;;8.50;99.90;;;;;;5051390;28;20485;-67
2021/11/01 01:42:21;;;;;;;5.17;2.50;;;8.50;99.90;;;;;;5051410;28;20179;-67
2021/11/01 01:44:46;;;;;;;4.20;2.50;;;8.60;99.90;;;;;;5050997;28;20196;-67
2021/11/01 01:47:12;;;;;;;3.50;3.00;;;8.60;99.90;;;;;;5051350;28;20171;-68
2021/11/01 01:49:37;;;;;;;4.43;2.50;;;8.60;99.90;;;;;;5051232;28;20168;-67
2021/11/01 01:52:05;;;;;;;2.90;2.60;;;8.60;99.90;;;;;;5051320;28;20226;-67
2021/11/01 01:54:30;;;;;;;2.70;2.50;;;8.60;99.90;;;;;;5050784;28;20200;-68
2021/11/01 01:56:56;;;;;;;3.37;2.53;;;8.60;99.90;;;;;;5051517;28;20410;-67
2021/11/01 01:59:22;;;;;;;2.63;2.53;;;8.60;99.90;;;;;;5051228;28;20167;-67
2021/11/01 02:01:50;;;;;;;2.70;2.40;;;8.50;99.90;;;;;;5051776;28;20221;-68
2021/11/01 02:04:21;;;;;;;3.47;3.17;;;8.60;99.90;;;;;;5050844;28;20426;-68
2021/11/01 02:06:56;;;;;;;5.93;2.33;;;8.60;99.90;;;;;;5051359;28;20418;-67
2021/11/01 02:09:27;;;;;;;3.60;3.10;;;8.60;99.90;;;;;;5051136;28;20462;-68
2021/11/01 02:12:08;;;;;;;5.20;2.53;;;8.60;99.90;;;;;;5051215;28;20417;-68
2021/11/01 02:14:52;;;;;;;3.13;2.53;;;8.60;99.90;;;;;;5050559;28;20461;-68
2021/11/01 02:17:21;;;;;;;3.07;2.80;;;8.60;99.90;;;;;;5051958;28;20874;-67
2021/11/01 02:19:51;;;;;;;2.77;2.20;;;8.60;99.90;;;;;;5054639;28;20548;-68
2021/11/01 02:22:39;;;;;;;3.73;3.00;;;8.60;99.90;;;;;;5054664;28;20402;-68
2021/11/01 02:25:15;;;;;;;5.97;2.50;;;8.70;99.90;;;;;;5054388;28;20430;-68
2021/11/01 02:27:43;;;;;;;2.70;2.50;;;8.60;99.90;;;;;;5036721;28;20422;-68
2021/11/01 02:30:10;;;;;;;5.50;2.83;;;8.70;99.90;;;;;;5054459;28;20441;-69
2021/11/01 02:32:40;;;;;;;3.30;3.00;;;8.60;99.90;;;;;;5054381;28;20547;-68
2021/11/01 02:35:06;;;;;;;3.70;3.33;;;8.60;99.90;;;;;;5054185;28;20457;-67
2021/11/01 02:37:32;;;;;;;2.90;2.53;;;8.60;99.90;;;;;;5054294;28;20399;-67
2021/11/01 02:39:58;;;;;;;3.83;3.00;;;8.50;99.90;;;;;;5054261;28;20391;-68
2021/11/01 02:42:27;;;;;;;3.13;2.03;;;8.50;99.90;;;;;;5054235;28;20405;-68
2021/11/01 02:45:01;;;;;;;5.63;2.73;;;8.40;99.90;;;;;;5053943;28;20487;-68
2021/11/01 02:47:28;;;;;;;7.03;2.83;;;8.40;99.90;;;;;;5054251;28;20405;-67
2021/11/01 02:49:57;;;;;;;3.40;2.87;;;8.50;99.90;;;;;;5053958;28;20906;-67
2021/11/01 02:52:24;;;;;;;5.23;3.23;;;8.50;99.90;;;;;;5054015;28;20434;-68
2021/11/01 02:54:50;;;;;;;3.10;2.80;;;8.40;99.90;;;;;;5053420;28;20467;-68
2021/11/01 02:57:16;;;;;;;2.27;2.07;;;8.40;99.90;;;;;;5054126;28;20403;-68
2021/11/01 02:59:43;;;;;;;3.10;2.77;;;8.40;99.90;;;;;;5053847;28;20429;-68
2021/11/01 03:02:08;;;;;;;6.33;4.00;;;8.40;99.90;;;;;;5053907;28;20406;-67
2021/11/01 03:04:35;;;;;;;3.43;3.13;;;8.40;99.90;;;;;;5053436;28;20831;-68
2021/11/01 03:07:01;;;;;;;2.47;2.27;;;8.40;99.90;;;;;;5053888;28;20195;-68
2021/11/01 03:09:29;;;;;;;5.27;2.60;;;8.30;99.90;;;;;;5053683;28;20461;-68
2021/11/01 03:11:57;;;;;;;4.70;2.67;;;8.30;99.90;;;;;;5053665;28;20938;-67
2021/11/01 03:14:27;;;;;;;5.03;2.90;;;8.30;99.90;;;;;;5053051;28;20978;-67
2021/11/01 03:16:54;;;;;;;3.43;3.07;;;8.30;99.90;;;;;;5053662;28;20395;-68
2021/11/01 03:19:23;;;;;;;2.70;2.50;;;8.20;99.90;;;;;;5053625;28;20403;-67
2021/11/01 03:21:49;;;;;;;2.83;2.70;;;8.30;99.90;;;;;;5053579;28;20460;-68
2021/11/01 03:24:16;;;;;;;4.27;3.10;;;8.30;99.90;;;;;;5053140;28;20438;-68
2021/11/01 03:26:43;;;;;;;3.27;2.77;;;8.20;99.90;;;;;;5053522;28;20914;-68
2021/11/01 03:29:10;;;;;;;5.57;2.80;;;8.20;99.90;;;;;;5052175;28;20457;-68
2021/11/01 03:31:39;;;;;;;4.93;3.70;;;8.30;99.90;;;;;;5053448;28;20403;-68
2021/11/01 03:34:06;;;;;;;9.00;3.53;;;8.30;99.90;;;;;;5052869;28;20446;-68
2021/11/01 03:36:32;;;;;;;2.73;2.47;;;8.30;99.90;;;;;;5053300;28;21037;-68
2021/11/01 03:38:59;;;;;;;4.03;2.60;;;8.30;99.90;;;;;;5053234;28;20435;-68
2021/11/01 03:41:27;;;;;;;3.23;2.63;;;8.20;99.90;;;;;;5053195;28;20398;-68
2021/11/01 03:44:02;;;;;;;3.83;2.30;;;8.20;99.90;;;;;;5052587;28;20423;-68
2021/11/01 03:46:41;;;;;;;3.67;2.37;;;8.30;99.90;;;;;;5053164;28;20406;-68
2021/11/01 03:49:12;;;;;;;3.90;2.30;;;8.20;99.90;;;;;;5035221;28;20419;-67
2021/11/01 03:54:19;;;;;;;7.30;2.07;;;8.20;99.90;;;;;;5052360;28;20505;-68
2021/11/01 03:56:47;;;;;;;11.13;4.07;;;8.10;99.90;;;;;;5052984;28;20453;-68
2021/11/01 03:59:14;;;;;;;2.80;2.60;;;8.10;99.90;;;;;;5052813;28;20406;-68
2021/11/01 04:01:42;;;;;;;3.73;2.03;;;8.20;99.90;;;;;;5052906;28;20970;-68
2021/11/01 04:04:08;;;;;;;8.67;3.03;;;8.10;99.90;;;;;;5052802;28;20883;-68
2021/11/01 04:06:34;;;;;;;9.43;2.20;;;8.10;99.90;;;;;;5052728;28;20395;-68
2021/11/01 04:09:00;;;;;;;6.97;2.70;;;8.10;99.90;;;;;;5052470;28;20746;-68
2021/11/01 04:11:26;;;;;;;4.10;2.20;;;8.10;99.90;;;;;;5052686;28;20501;-68
2021/11/01 04:13:59;;;;;;;4.70;2.60;;;8.10;99.90;;;;;;5051989;28;20277;-67
2021/11/01 04:16:30;;;;;;;2.80;1.80;;;8.10;99.90;;;;;;5052699;28;20440;-68
2021/11/01 04:21:47;;;;;;;2.40;2.20;;;8.00;99.90;;;;;;5021243;28;20430;-67
2021/11/01 04:24:15;;;;;;;3.43;2.20;;;8.00;99.90;;;;;;5051952;28;20441;-68
2021/11/01 04:26:43;;;;;;;3.27;2.50;;;7.90;99.90;;;;;;5052465;28;20417;-68
2021/11/01 04:29:09;;;;;;;12.80;7.73;;;7.90;99.90;;;;;;5052280;28;20757;-68
2021/11/01 04:31:37;;;;;;;11.37;4.07;;;8.00;99.90;;;;;;5052381;28;20418;-67
2021/11/01 04:34:13;;;;;;;11.30;2.73;;;8.00;99.90;;;;;;5051733;28;20457;-68
2021/11/01 04:36:40;;;;;;;2.70;2.17;;;7.90;99.90;;;;;;5052412;28;20429;-68
2021/11/01 04:39:20;;;;;;;8.10;3.17;;;7.80;99.90;;;;;;5052166;28;20420;-68
2021/11/01 04:53:00;;;;;;;4.80;2.57;;;7.80;99.90;;;;;;5071957;28;20824;-68
2021/11/01 04:55:28;;;;;;;5.40;2.00;;;7.80;99.90;;;;;;5071977;28;20511;-68
2021/11/01 04:57:54;;;;;;;7.03;2.27;;;7.80;99.90;;;;;;5071973;28;20439;-67
2021/11/01 05:00:20;;;;;;;2.60;2.20;;;7.80;99.90;;;;;;5071967;28;20779;-68
2021/11/01 05:02:51;;;;;;;4.30;1.70;;;7.70;99.90;;;;;;5071562;28;20416;-68
2021/11/01 05:05:16;;;;;;;4.97;2.10;;;7.70;99.90;;;;;;5071773;28;20193;-68
2021/11/01 05:07:44;;;;;;;4.77;2.50;;;7.70;99.90;;;;;;5071819;28;20401;-68
2021/11/01 05:10:20;;;;;;;7.63;3.00;;;7.70;99.90;;;;;;5071839;28;20167;-68
2021/11/01 05:12:45;;;;;;;2.73;2.60;;;7.70;99.90;;;;;;5071600;28;20762;-68
2021/11/01 05:15:23;;;;;;;3.67;2.17;;;7.60;99.90;;;;;;5071605;28;20458;-67
2021/11/01 05:17:54;;;;;;;4.93;2.63;;;7.60;99.90;;;;;;5071741;28;20163;-68
2021/11/01 05:25:31;;;;;;;5.23;2.80;;;7.60;99.90;;;;;;5071784;28;20239;-68
2021/11/01 05:30:42;;;;;;;6.97;3.03;;;7.60;99.90;;;;;;5071459;28;20470;-68
2021/11/01 05:35:36;;;;;;;4.90;2.67;;;7.60;99.90;;;;;;5071561;28;20793;-67
2021/11/01 05:38:02;;;;;;;9.30;3.30;;;7.60;99.90;;;;;;5071528;28;20421;-68
2021/11/01 05:40:27;;;;;;;5.40;3.53;;;7.50;99.90;;;;;;5071441;28;20181;-67
2021/11/01 05:42:53;;;;;;;4.00;3.60;;;7.50;99.90;;;;;;5071125;28;20179;-67
2021/11/01 05:45:20;;;;;;;6.10;5.10;;;7.50;99.90;;;;;;5071393;28;20167;-67
2021/11/01 05:47:51;;;;;;;4.83;3.27;;;7.50;99.90;;;;;;5071690;28;20305;-68
2021/11/01 05:50:17;;;;;;;3.60;3.30;;;7.50;99.90;;;;;;5071544;28;20413;-67
2021/11/01 05:52:44;;;;;;;6.20;4.10;;;7.60;99.90;;;;;;5072623;28;20411;-68
2021/11/01 06:03:11;;;;;;;6.17;3.17;;;7.50;99.90;;;;;;5074622;28;20427;-67
2021/11/01 06:13:30;;;;;;;5.53;2.73;;;7.50;99.90;;;;;;5074413;28;20927;-67
2021/11/01 06:15:58;;;;;;;4.10;3.10;;;7.50;99.90;;;;;;5074760;28;20447;-68
2021/11/01 06:18:37;;;;;;;6.70;2.67;;;7.50;99.90;;;;;;5074776;28;20512;-67
2021/11/01 06:21:08;;;;;;;5.53;3.33;;;7.50;99.90;;;;;;5074685;28;20397;-67
2021/11/01 06:23:36;;;;;;;4.07;2.90;;;7.50;99.90;;;;;;5074347;28;20420;-67
2021/11/01 06:26:02;;;;;;;6.30;4.00;;;7.50;99.90;;;;;;5074645;28;20411;-67
2021/11/01 06:28:28;;;;;;;2.47;2.23;;;7.50;99.90;;;;;;5074551;28;20408;-67
2021/11/01 06:31:14;;;;;;;7.57;3.33;;;7.40;99.90;;;;;;5074474;28;20413;-67
2021/11/01 06:39:24;;;;;;;5.50;4.27;;;7.50;99.90;;;;;;5074313;28;20931;-67
2021/11/01 06:44:45;;;;;;;7.10;2.77;;;7.50;99.90;;;;;;5073892;28;20820;-68
2021/11/01 06:53:12;;;;;;;6.17;3.57;;;7.40;99.90;;;;;;5011883;28;20442;-68
2021/11/01 06:58:36;;;;;;;9.80;3.67;;;7.40;99.90;;;;;;5058257;28;20411;-68
2021/11/01 07:17:13;;;;;;;3.63;2.70;;;7.70;99.90;;;;;;5073885;28;20402;-68
2021/11/01 09:01:21;;;;;;;4.70;2.00;;;11.20;99.90;;;;;;5071462;28;20445;-68
2021/11/01 09:01:24;;;;;;;5.17;1.67;;;11.40;99.90;;;;;;5071832;28;20409;-68
2021/11/01 09:26:56;;;;;;;3.87;2.10;;;14.70;93.40;;;;;;5073748;28;20420;-69
2021/11/01 09:42:53;;;;;;;2.20;1.30;;;16.20;89.90;;;;;;5075257;28;20442;-69
2021/11/01 09:45:24;;;;;;;1.60;1.50;;;16.20;89.20;;;;;;5075413;28;20458;-69
2021/11/01 09:47:51;;;;;;;1.90;1.70;;;16.20;90.10;;;;;;5075652;28;20410;-69
2021/11/01 09:50:21;;;;;;;3.20;1.43;;;16.60;90.50;;;;;;5075258;28;20402;-70
2021/11/01 09:52:59;;;;;;;3.40;1.60;;;16.30;87.00;;;;;;5074915;28;20409;-69
2021/11/01 10:00:41;;;;;;;2.30;1.40;;;16.50;85.60;;;;;;5075052;28;20400;-70
2021/11/01 10:03:07;;;;;;;3.23;2.03;;;16.70;86.20;;;;;;5074940;28;20398;-69
2021/11/01 10:05:35;;;;;;;3.97;1.83;;;16.90;83.80;;;;;;5075093;28;20224;-68
2021/11/01 10:08:01;;;;;;;3.73;1.87;;;17.00;85.50;;;;;;5074996;28;20178;-70
2021/11/01 10:10:30;;;;;;;2.63;1.57;;;17.90;86.50;;;;;;5074991;28;20409;-70
2021/11/01 10:12:56;;;;;;;3.97;1.60;;;18.30;81.70;;;;;;5074452;28;20401;-70
2021/11/01 10:18:14;;;;;;;2.27;1.80;;;18.40;77.70;;;;;;5075216;28;20401;-70
2021/11/01 10:20:46;;;;;;;6.63;1.67;;;17.90;79.70;;;;;;5074751;28;20397;-70
2021/11/01 10:23:23;;;;;;;1.60;1.50;;;18.10;80.30;;;;;;5074425;28;20406;-70
2021/11/01 10:25:49;;;;;;;1.40;1.30;;;17.80;81.30;;;;;;5074717;28;20931;-70
2021/11/01 10:28:15;;;;;;;1.73;1.60;;;18.10;77.70;;;;;;5074527;28;20829;-70
2021/11/01 10:30:41;;;;;;;4.30;1.90;;;17.60;77.00;;;;;;5074524;28;20397;-70
2021/11/01 10:33:09;;;;;;;1.57;1.47;;;17.60;77.10;;;;;;5056234;28;20186;-70
2021/11/01 10:35:39;;;;;;;3.43;1.63;;;18.20;79.70;;;;;;5074538;28;20808;-70
2021/11/01 10:38:20;;;;;;;1.53;1.10;;;18.10;77.50;;;;;;5073827;28;20774;-70
2021/11/01 11:13:58;;;;;;;2.17;1.43;;;17.10;75.80;;;;;;5073451;28;20426;-70
2021/11/01 11:39:07;;;;;;;2.43;1.37;;;20.00;68.00;;;;;;5073462;28;20405;-71
2021/11/01 11:47:47;;;;;;;3.60;2.03;;;19.30;67.10;;;;;;5073436;28;20435;-70
2021/11/01 11:50:23;;;;;;;4.97;1.90;;;19.00;72.10;;;;;;5072033;28;20432;-70
2021/11/01 11:52:49;;;;;;;1.80;1.27;;;18.80;68.50;;;;;;5072921;28;20409;-70
2021/11/01 11:55:26;;;;;;;2.00;1.80;;;18.50;70.50;;;;;;5088010;22;20488;-70
2021/11/01 11:57:59;;;;;;;1.67;1.57;;;17.60;71.70;;;;;;5072835;28;20393;-70
2021/11/01 12:00:30;;;;;;;2.73;1.47;;;17.40;71.80;;;;;;5072815;28;20491;-70
2021/11/01 12:02:57;;;;;;;3.17;1.63;;;17.40;72.60;;;;;;5072444;28;20397;-70
2021/11/01 12:05:59;;;;;;;1.60;1.50;;;17.30;71.20;;;;;;5072743;28;20394;-70
2021/11/01 12:14:14;;;;;;;1.90;1.40;;;19.10;76.20;;;;;;5068941;28;20437;-70
2021/11/01 12:17:21;;;;;;;1.90;1.30;;;19.30;67.60;;;;;;5069343;28;20746;-70
2021/11/01 12:19:40;;;;;;;3.20;1.80;;;19.20;70.80;;;;;;5069821;28;20587;-70
2021/11/01 12:22:09;;;;;;;2.13;1.60;;;19.70;68.40;;;;;;5069180;28;20440;-70
2021/11/01 12:24:35;;;;;;;1.63;1.33;;;19.70;67.00;;;;;;5068748;28;20675;-70
2021/11/01 12:27:09;;;;;;;1.73;1.40;;;18.90;66.70;;;;;;5068880;28;20413;-70
2021/11/01 12:29:37;;;;;;;2.20;1.60;;;18.50;67.70;;;;;;5068893;28;20492;-70
2021/11/01 12:32:07;;;;;;;2.00;1.40;;;17.60;68.00;;;;;;5068977;28;20402;-70
2021/11/01 12:34:45;;;;;;;2.20;1.30;;;17.80;70.20;;;;;;5068362;28;20429;-71
2021/11/01 12:37:22;;;;;;;1.80;1.40;;;17.80;69.60;;;;;;5068966;28;20424;-70
2021/11/01 12:39:54;;;;;;;4.77;1.70;;;18.00;73.70;;;;;;5069281;28;20405;-71
2021/11/01 12:58:56;;;;;;;1.93;1.83;;;20.30;66.70;;;;;;5068409;28;20459;-71
2021/11/01 13:01:23;;;;;;;1.70;1.60;;;20.70;67.90;;;;;;5068429;28;20487;-72
2021/11/01 13:03:52;;;;;;;3.70;1.73;;;19.60;63.60;;;;;;5067955;28;20433;-71
2021/11/01 13:06:45;;;;;;;4.53;1.40;;;19.50;67.00;;;;;;5068216;28;20398;-71
2021/11/01 13:09:21;;;;;;;1.50;1.40;;;19.70;62.70;;;;;;5067973;28;20510;-70
2021/11/01 13:12:23;;;;;;;2.70;1.40;;;20.00;65.20;;;;;;5068061;28;20452;-70
2021/11/01 13:15:04;;;;;;;2.10;1.40;;;19.70;63.30;;;;;;5067394;28;20425;-70
2021/11/01 13:20:20;;;;;;;4.10;1.53;;;19.90;62.60;;;;;;5066228;28;20448;-72
2021/11/01 13:22:46;;;;;;;3.30;1.10;;;20.00;62.70;;;;;;5054213;28;20409;-71
2021/11/01 13:25:25;;;;;;;4.10;1.30;;;19.80;67.20;;;;;;5054590;28;20463;-72
2021/11/01 13:36:27;;;;;;;2.73;1.40;;;19.90;63.40;;;;;;5054801;28;20441;-72
2021/11/01 13:38:57;;;;;;;1.40;1.30;;;19.70;62.30;;;;;;5054016;28;20419;-72
2021/11/01 13:41:28;;;;;;;1.50;1.27;;;19.80;62.80;;;;;;5054409;28;20403;-72
2021/11/01 13:44:05;;;;;;;2.17;1.53;;;20.30;68.30;;;;;;5053865;28;20508;-72
2021/11/01 13:46:31;;;;;;;2.10;1.30;;;20.30;61.20;;;;;;5054298;28;20436;-71
2021/11/01 13:48:58;;;;;;;1.70;1.60;;;20.30;62.20;;;;;;5054180;28;20481;-72
2021/11/01 13:51:28;;;;;;;2.00;1.30;;;21.10;67.60;;;;;;5054226;28;20183;-72
2021/11/01 13:54:05;;;;;;;1.50;1.40;;;20.30;61.50;;;;;;5053783;28;20800;-72
2021/11/01 13:56:47;;;;;;;4.80;1.70;;;19.40;60.50;;;;;;5054113;28;20403;-72
2021/11/01 13:59:37;;;;;;;2.17;1.53;;;19.50;63.20;;;;;;5053999;28;20887;-71
2021/11/01 14:35:13;;;;;;;2.83;1.50;;;16.10;69.10;;;;;;5052592;28;20427;-72
2021/11/01 14:57:54;;;;;;;2.20;1.60;;;14.50;76.40;;;;;;5052969;28;20878;-71
2021/11/01 15:03:11;;;;;;;4.03;1.40;;;14.00;75.00;;;;;;5052896;28;20445;-70
2021/11/01 15:10:59;;;;;;;1.80;1.50;;;13.40;78.40;;;;;;5052337;28;20915;-71
2021/11/01 15:18:41;;;;;;;1.73;1.47;;;12.90;78.80;;;;;;5052526;28;20476;-71
2021/11/01 15:26:19;;;;;;;1.60;1.37;;;12.50;80.90;;;;;;5052329;28;20394;-71
2021/11/01 16:18:00;;;;;;;1.63;1.40;;;11.20;88.90;;;;;;5051749;28;20937;-70
2021/11/01 16:20:26;;;;;;;3.23;1.63;;;11.20;90.10;;;;;;5051530;28;20406;-70
2021/11/01 16:23:08;;;;;;;1.37;1.27;;;11.10;90.30;;;;;;5051180;28;20909;-69
2021/11/01 16:25:34;;;;;;;1.60;1.23;;;11.00;90.40;;;;;;5051692;28;20407;-70
2021/11/01 16:28:00;;;;;;;3.83;1.50;;;10.80;90.40;;;;;;5051579;28;20773;-69
2021/11/01 16:30:29;;;;;;;2.23;1.73;;;10.80;90.50;;;;;;5051385;28;20223;-70
2021/11/01 16:33:00;;;;;;;4.20;1.93;;;10.70;90.90;;;;;;5051235;28;20649;-70
2021/11/01 16:35:33;;;;;;;2.50;1.33;;;10.60;91.20;;;;;;5051557;28;20406;-70
2021/11/01 16:38:11;;;;;;;1.70;1.33;;;10.60;92.00;;;;;;5051435;28;20436;-69
2021/11/01 16:40:39;;;;;;;2.20;1.23;;;10.50;91.80;;;;;;5051434;28;20418;-69
2021/11/01 16:43:13;;;;;;;6.00;1.90;;;10.60;92.20;;;;;;5049563;28;20418;-70
2021/11/01 16:45:39;;;;;;;2.50;1.90;;;10.40;92.20;;;;;;5051413;28;20394;-69
2021/11/01 16:48:07;;;;;;;1.60;1.50;;;10.30;92.20;;;;;;5051381;28;20398;-69
2021/11/01 16:50:34;;;;;;;2.23;1.80;;;10.30;92.60;;;;;;5051195;28;20491;-69
2021/11/01 16:53:00;;;;;;;4.10;1.90;;;10.30;92.90;;;;;;5050839;28;20402;-69
2021/11/01 16:55:47;;;;;;;1.70;1.50;;;10.10;92.70;;;;;;5051328;28;20406;-69
2021/11/01 16:58:19;;;;;;;4.27;1.97;;;10.20;92.80;;;;;;5055031;28;20160;-69
2021/11/01 17:00:59;;;;;;;3.67;1.93;;;10.10;93.00;;;;;;5055068;28;20430;-69
2021/11/01 17:03:45;;;;;;;5.07;1.67;;;10.00;93.70;;;;;;5054754;28;20960;-69
2021/11/01 17:22:52;;;;;;;4.07;1.73;;;9.60;95.70;;;;;;5054331;28;20418;-67
2021/11/01 17:25:25;;;;;;;5.03;1.60;;;9.50;96.20;;;;;;5054624;28;20426;-69
2021/11/01 17:28:14;;;;;;;1.60;1.50;;;9.50;96.40;;;;;;5053705;28;20784;-69
2021/11/01 18:40:02;;;;;;;2.67;1.77;;;8.70;99.90;;;;;;5053178;28;20803;-68
2021/11/01 18:50:56;;;;;;;5.30;1.60;;;8.60;99.90;;;;;;5053009;28;20457;-69
2021/11/01 18:53:29;;;;;;;1.60;1.50;;;8.60;99.90;;;;;;5052608;28;20537;-69
2021/11/01 18:55:55;;;;;;;9.60;1.60;;;8.60;99.90;;;;;;5052859;28;21016;-67
2021/11/01 18:58:26;;;;;;;3.67;1.70;;;8.50;99.90;;;;;;5052844;28;20403;-67
2021/11/01 19:00:55;;;;;;;2.07;1.73;;;8.50;99.90;;;;;;5052806;28;20414;-68
2021/11/01 19:03:23;;;;;;;3.90;1.93;;;8.60;99.90;;;;;;5052289;28;20418;-68
2021/11/01 19:06:21;;;;;;;3.90;1.90;;;8.50;99.90;;;;;;5052732;28;20494;-68
2021/11/01 19:11:48;;;;;;;3.17;2.53;;;8.60;99.90;;;;;;5052632;28;20426;-68
2021/11/01 20:04:16;;;;;;;3.90;2.13;;;8.60;99.90;;;;;;5051779;28;20440;-68
2021/11/01 21:25:55;;;;;;;3.53;1.73;;;8.30;99.90;;;;;;5054782;28;20932;-68
2021/11/01 21:28:22;;;;;;;5.67;1.83;;;8.30;99.90;;;;;;5054401;28;20409;-68
2021/11/01 21:30:48;;;;;;;7.27;1.90;;;8.40;99.90;;;;;;5054368;28;20445;-69
2021/11/01 21:33:22;;;;;;;1.40;1.30;;;8.40;99.90;;;;;;5054111;28;20494;-68
2021/11/01 21:35:51;;;;;;;2.90;2.63;;;8.30;99.90;;;;;;5054589;28;20415;-68
2021/11/01 21:38:17;;;;;;;2.47;2.13;;;8.30;99.90;;;;;;5054089;28;20421;-68
2021/11/01 21:40:47;;;;;;;3.50;2.00;;;8.20;99.90;;;;;;5054297;28;20502;-68
2021/11/01 21:43:13;;;;;;;1.90;1.80;;;8.20;99.90;;;;;;5053325;28;20406;-69
2021/11/01 21:45:40;;;;;;;3.47;2.27;;;8.10;99.90;;;;;;5054145;28;20394;-69
2021/11/01 21:48:05;;;;;;;2.30;1.93;;;8.00;99.90;;;;;;5054003;28;20414;-68
2021/11/01 21:50:31;;;;;;;2.03;1.77;;;8.00;99.90;;;;;;5053942;28;20473;-68
2021/11/01 21:53:00;;;;;;;2.30;2.10;;;8.00;99.90;;;;;;5053769;28;20171;-68
2021/11/01 21:55:26;;;;;;;2.30;1.70;;;7.90;99.90;;;;;;5054105;28;20534;-69
2021/11/01 21:58:36;;;;;;;2.00;1.90;;;7.90;99.90;;;;;;5053666;28;20433;-68
2021/11/01 22:01:05;;;;;;;4.33;1.50;;;7.90;99.90;;;;;;5054461;28;20422;-68
2021/11/01 22:17:55;;;;;;;3.93;1.77;;;7.80;99.90;;;;;;5053745;28;21012;-67
2021/11/01 22:33:32;;;;;;;1.97;1.43;;;7.70;99.90;;;;;;5053229;28;20445;-68
2021/11/01 22:41:41;;;;;;;1.60;1.13;;;7.70;99.90;;;;;;5053128;28;20426;-67
2021/11/01 22:57:24;;;;;;;0.90;0.90;;;7.50;99.90;;;;;;5053021;28;20885;-66
2021/11/01 22:59:50;;;;;;;1.80;1.10;;;7.60;99.90;;;;;;5052446;28;20471;-67
2021/11/01 23:02:15;;;;;;;2.70;1.30;;;9.10;99.90;;;;;;5052755;28;20418;-68
2021/11/01 23:04:54;;;;;;;1.20;1.20;;;7.70;99.90;;;;;;5052342;28;20194;-68
2021/11/01 23:31:39;;;;;;;1.47;1.47;;;7.60;99.90;;;;;;5052262;28;20404;-66
2021/11/01 23:34:08;;;;;;;1.40;1.30;;;7.60;99.90;;;;;;5051884;28;20851;-68
2021/11/01 23:36:34;;;;;;;2.17;1.53;;;7.60;99.90;;;;;;5052254;28;20925;-68
2021/11/01 23:39:02;;;;;;;2.80;1.17;;;7.60;99.90;;;;;;5051757;28;20487;-66
2021/11/01 23:41:28;;;;;;;1.27;1.27;;;7.60;99.90;;;;;;5052170;28;20407;-67
2021/11/01 23:43:53;;;;;;;1.20;1.20;;;7.60;99.90;;;;;;5051640;28;20429;-67
2021/11/01 23:46:19;;;;;;;1.33;1.03;;;7.50;99.90;;;;;;5052093;28;20543;-69
2021/11/01 23:48:45;;;;;;;1.63;1.60;;;7.60;99.90;;;;;;5051606;28;20198;-67
2021/11/01 23:51:12;;;;;;;1.37;1.00;;;7.50;99.90;;;;;;5051976;28;20686;-68
2021/11/01 23:56:06;;;;;;;1.10;1.10;;;7.40;99.90;;;;;;5052000;28;20515;-67
2021/11/01 23:58:33;;;;;;;1.40;1.40;;;7.40;99.90;;;;;;5051781;28;20402;-66
